Time;durP1;ratioP1;P1;durP2;ratioP2;P2;SDS_P1;SDS_P2;PMS_P1;PMS_P2;Temp;Humidity;BMP_temperature;BMP_pressure;BME280_temperature;BME280_humidity;BME280_pressure;Samples;Min_cycle;Max_cycle;Signal;HPM_P1;HPM_P2
2023/10/30 00:00:50;;;;;;;2.50;1.57;;;;;;;;;;5055790;27;93834;-56
2023/10/30 00:03:19;;;;;;;1.90;1.70;;;;;;;;;;5054623;27;92137;-56
2023/10/30 00:05:48;;;;;;;1.80;1.67;;;;;;;;;;5058196;27;92063;-55
2023/10/30 00:08:18;;;;;;;2.47;1.50;;;;;;;;;;5054795;27;95276;-56
2023/10/30 00:10:48;;;;;;;4.37;1.63;;;;;;;;;;5055643;27;94788;-56
2023/10/30 00:13:17;;;;;;;3.10;1.40;;;;;;;;;;5054630;27;92063;-56
2023/10/30 00:15:45;;;;;;;3.13;1.80;;;;;;;;;;5058180;27;92071;-56
2023/10/30 00:18:13;;;;;;;1.53;1.40;;;;;;;;;;5057380;27;94073;-55
2023/10/30 00:20:42;;;;;;;2.17;1.40;;;;;;;;;;5054064;27;93614;-55
2023/10/30 00:23:10;;;;;;;2.60;1.50;;;;;;;;;;5058340;27;92098;-56
2023/10/30 00:25:39;;;;;;;2.07;1.50;;;;;;;;;;5058303;27;91253;-56
2023/10/30 00:28:09;;;;;;;1.67;1.00;;;;;;;;;;5057769;27;93301;-56
2023/10/30 00:30:37;;;;;;;3.00;1.63;;;;;;;;;;5052774;27;92908;-56
2023/10/30 00:33:05;;;;;;;3.17;1.97;;;;;;;;;;5057568;27;92953;-55
2023/10/30 00:35:34;;;;;;;4.00;1.27;;;;;;;;;;5054296;27;92099;-56
2023/10/30 00:38:02;;;;;;;1.60;0.93;;;;;;;;;;5057741;27;94218;-55
2023/10/30 00:40:31;;;;;;;1.83;1.57;;;;;;;;;;5056473;27;92699;-56
2023/10/30 00:42:59;;;;;;;3.60;1.50;;;;;;;;;;5054408;27;91876;-56
2023/10/30 00:45:29;;;;;;;3.23;1.50;;;;;;;;;;5057343;27;92040;-56
2023/10/30 00:47:58;;;;;;;3.63;1.50;;;;;;;;;;5052359;27;94281;-55
2023/10/30 00:50:26;;;;;;;2.00;1.40;;;;;;;;;;5056934;27;93957;-55
2023/10/30 00:52:55;;;;;;;4.07;1.73;;;;;;;;;;5057973;27;92031;-56
2023/10/30 00:55:24;;;;;;;1.40;1.20;;;;;;;;;;5056503;27;92032;-56
2023/10/30 00:57:52;;;;;;;1.43;1.33;;;;;;;;;;5056085;27;94992;-55
2023/10/30 01:00:20;;;;;;;3.93;1.60;;;;;;;;;;5054560;27;94811;-55
2023/10/30 01:02:50;;;;;;;2.23;1.27;;;;;;;;;;5057542;27;92082;-55
2023/10/30 01:05:19;;;;;;;2.70;1.93;;;;;;;;;;5057351;27;92114;-56
2023/10/30 01:07:48;;;;;;;3.00;1.63;;;;;;;;;;5057271;27;94194;-56
2023/10/30 01:10:16;;;;;;;1.93;1.13;;;;;;;;;;5056682;27;92753;-56
2023/10/30 01:12:44;;;;;;;2.13;1.40;;;;;;;;;;5057583;27;92067;-56
2023/10/30 01:15:13;;;;;;;2.80;1.57;;;;;;;;;;5057730;27;91302;-56
2023/10/30 01:17:41;;;;;;;5.47;1.87;;;;;;;;;;5057521;27;93451;-55
2023/10/30 01:20:12;;;;;;;2.73;2.20;;;;;;;;;;5057102;27;93528;-56
2023/10/30 01:22:40;;;;;;;3.07;1.83;;;;;;;;;;5054839;27;93135;-55
2023/10/30 01:25:09;;;;;;;3.93;2.07;;;;;;;;;;5057364;27;92080;-56
2023/10/30 01:27:37;;;;;;;2.83;1.80;;;;;;;;;;5054478;27;93033;-56
2023/10/30 01:30:06;;;;;;;3.33;1.97;;;;;;;;;;5056709;27;94036;-55
2023/10/30 01:32:35;;;;;;;3.03;2.30;;;;;;;;;;5057521;27;92020;-56
2023/10/30 01:35:03;;;;;;;2.70;1.83;;;;;;;;;;5055720;27;92086;-55
2023/10/30 01:37:33;;;;;;;3.23;1.40;;;;;;;;;;5057055;27;94174;-55
2023/10/30 01:40:02;;;;;;;6.40;2.03;;;;;;;;;;5053805;27;93904;-56
2023/10/30 01:42:30;;;;;;;1.67;1.53;;;;;;;;;;5057330;27;92192;-55
2023/10/30 01:44:59;;;;;;;3.97;1.70;;;;;;;;;;5054357;27;92633;-55
2023/10/30 01:47:27;;;;;;;4.50;2.30;;;;;;;;;;5056299;27;95156;-56
2023/10/30 01:49:56;;;;;;;3.83;2.00;;;;;;;;;;5056262;27;94744;-56
2023/10/30 01:52:24;;;;;;;2.90;1.83;;;;;;;;;;5057113;27;91892;-55
2023/10/30 01:54:54;;;;;;;5.43;2.50;;;;;;;;;;5058064;27;92097;-55
2023/10/30 01:57:23;;;;;;;4.13;2.27;;;;;;;;;;5060288;27;94077;-55
2023/10/30 01:59:51;;;;;;;1.93;1.73;;;;;;;;;;5059746;27;93950;-56
2023/10/30 02:02:20;;;;;;;3.43;2.60;;;;;;;;;;5060531;27;92058;-55
2023/10/30 02:04:48;;;;;;;7.80;2.83;;;;;;;;;;5060239;27;93103;-55
2023/10/30 02:07:17;;;;;;;2.40;1.67;;;;;;;;;;5060356;27;94071;-56
2023/10/30 02:09:48;;;;;;;3.27;1.53;;;;;;;;;;5060077;27;93833;-55
2023/10/30 02:12:18;;;;;;;5.43;1.77;;;;;;;;;;5057278;27;92841;-55
2023/10/30 02:14:47;;;;;;;2.27;1.33;;;;;;;;;;5059608;27;92061;-56
2023/10/30 02:17:15;;;;;;;3.13;1.93;;;;;;;;;;5060012;27;94374;-55
2023/10/30 02:19:43;;;;;;;2.67;2.03;;;;;;;;;;5059703;27;92705;-55
2023/10/30 02:22:12;;;;;;;5.27;2.10;;;;;;;;;;5060037;27;91873;-56
2023/10/30 02:24:40;;;;;;;4.57;2.17;;;;;;;;;;5060144;27;92065;-56
2023/10/30 02:27:10;;;;;;;3.37;1.73;;;;;;;;;;5059197;27;93857;-55
2023/10/30 02:29:40;;;;;;;2.13;1.50;;;;;;;;;;5060093;27;93617;-56
2023/10/30 02:32:09;;;;;;;4.93;2.07;;;;;;;;;;5053552;27;94818;-55
2023/10/30 02:34:37;;;;;;;3.13;2.07;;;;;;;;;;5055003;27;92182;-56
2023/10/30 02:37:06;;;;;;;3.20;1.90;;;;;;;;;;5057433;27;94992;-56
2023/10/30 02:39:34;;;;;;;2.70;1.40;;;;;;;;;;5057812;27;94966;-56
2023/10/30 02:42:04;;;;;;;4.07;2.10;;;;;;;;;;5057981;27;92061;-55
2023/10/30 02:44:34;;;;;;;3.23;1.93;;;;;;;;;;5057993;27;92197;-56
2023/10/30 02:47:02;;;;;;;3.43;2.17;;;;;;;;;;5057804;27;93180;-56
2023/10/30 02:49:31;;;;;;;3.13;1.60;;;;;;;;;;5058140;27;93938;-56
2023/10/30 02:51:59;;;;;;;3.30;2.40;;;;;;;;;;5057055;27;92072;-56
2023/10/30 02:54:27;;;;;;;5.10;1.63;;;;;;;;;;5059774;27;91326;-55
2023/10/30 02:56:56;;;;;;;2.83;1.93;;;;;;;;;;5058719;27;94020;-55
2023/10/30 02:59:24;;;;;;;3.47;1.77;;;;;;;;;;5059267;27;93789;-56
2023/10/30 03:01:54;;;;;;;4.03;2.13;;;;;;;;;;5059091;27;92927;-55
2023/10/30 03:04:23;;;;;;;2.27;1.67;;;;;;;;;;5059385;27;92070;-56
2023/10/30 03:06:52;;;;;;;6.73;2.13;;;;;;;;;;5057938;27;94035;-56
2023/10/30 03:09:20;;;;;;;3.33;1.53;;;;;;;;;;5056879;27;93576;-56
2023/10/30 03:11:49;;;;;;;4.23;2.53;;;;;;;;;;5058351;27;91980;-55
2023/10/30 03:14:17;;;;;;;2.43;1.97;;;;;;;;;;5056292;27;92023;-56
2023/10/30 03:16:46;;;;;;;1.23;1.13;;;;;;;;;;5058672;27;94086;-56
2023/10/30 03:19:15;;;;;;;2.67;1.87;;;;;;;;;;5058760;27;92713;-56
2023/10/30 03:21:44;;;;;;;4.87;2.20;;;;;;;;;;5059178;27;91976;-55
2023/10/30 03:24:12;;;;;;;1.97;1.20;;;;;;;;;;5058954;27;92115;-56
2023/10/30 03:26:40;;;;;;;3.50;1.90;;;;;;;;;;5057398;27;95132;-55
2023/10/30 03:29:09;;;;;;;3.27;1.93;;;;;;;;;;5058399;27;94741;-56
2023/10/30 03:31:37;;;;;;;2.17;1.80;;;;;;;;;;5058804;27;92488;-55
2023/10/30 03:34:06;;;;;;;5.50;2.23;;;;;;;;;;5059270;27;92757;-55
2023/10/30 03:36:36;;;;;;;1.77;1.67;;;;;;;;;;5058641;27;94232;-56
2023/10/30 03:39:04;;;;;;;6.10;2.27;;;;;;;;;;5059465;27;93007;-55
2023/10/30 03:41:32;;;;;;;4.47;2.23;;;;;;;;;;5058154;27;91877;-55
2023/10/30 03:44:01;;;;;;;2.67;1.67;;;;;;;;;;5059344;27;91344;-55
2023/10/30 03:46:30;;;;;;;2.97;1.70;;;;;;;;;;5057834;27;94098;-55
2023/10/30 03:48:58;;;;;;;4.20;2.33;;;;;;;;;;5049101;27;93866;-56
2023/10/30 03:51:26;;;;;;;4.73;2.50;;;;;;;;;;5058695;27;93001;-56
2023/10/30 03:53:56;;;;;;;3.73;2.00;;;;;;;;;;5055321;27;92038;-56
2023/10/30 03:56:25;;;;;;;3.93;2.30;;;;;;;;;;5057032;27;94073;-55
2023/10/30 03:58:53;;;;;;;5.57;3.13;;;;;;;;;;5057242;27;93793;-56
2023/10/30 04:01:22;;;;;;;3.67;2.30;;;;;;;;;;5049996;27;92319;-56
2023/10/30 04:03:52;;;;;;;3.50;2.33;;;;;;;;;;5054516;27;92007;-55
2023/10/30 04:06:20;;;;;;;3.37;2.60;;;;;;;;;;5052039;27;94202;-55
2023/10/30 04:08:49;;;;;;;6.30;2.70;;;;;;;;;;5052354;27;92618;-56
2023/10/30 04:11:19;;;;;;;5.10;2.87;;;;;;;;;;5055138;27;92011;-56
2023/10/30 04:13:47;;;;;;;4.47;3.07;;;;;;;;;;5054882;27;93344;-55
2023/10/30 04:16:16;;;;;;;3.83;3.27;;;;;;;;;;5052453;27;95046;-55
2023/10/30 04:18:45;;;;;;;6.30;3.57;;;;;;;;;;5053012;27;93756;-55
2023/10/30 04:21:14;;;;;;;4.13;3.00;;;;;;;;;;5051318;27;92019;-56
2023/10/30 04:23:44;;;;;;;7.00;3.53;;;;;;;;;;5053350;27;92515;-56
2023/10/30 04:26:12;;;;;;;3.23;2.00;;;;;;;;;;5050085;27;94249;-55
2023/10/30 04:28:42;;;;;;;5.40;2.90;;;;;;;;;;5054077;27;93870;-55
2023/10/30 04:31:10;;;;;;;6.13;3.57;;;;;;;;;;5055226;27;92460;-56
2023/10/30 04:33:39;;;;;;;5.33;3.27;;;;;;;;;;5055391;27;91312;-56
2023/10/30 04:36:07;;;;;;;7.97;3.37;;;;;;;;;;5053958;27;94260;-55
2023/10/30 04:38:37;;;;;;;5.23;3.07;;;;;;;;;;5051722;27;92659;-56
2023/10/30 04:41:05;;;;;;;6.17;3.00;;;;;;;;;;5054751;27;93371;-55
2023/10/30 04:43:34;;;;;;;4.10;2.23;;;;;;;;;;5052529;27;92565;-56
2023/10/30 04:46:04;;;;;;;4.37;3.10;;;;;;;;;;5054765;27;94235;-56
2023/10/30 04:48:32;;;;;;;9.30;3.83;;;;;;;;;;5054359;27;93984;-56
2023/10/30 04:51:00;;;;;;;6.70;4.07;;;;;;;;;;5049755;27;92658;-56
2023/10/30 04:53:29;;;;;;;6.33;3.00;;;;;;;;;;5054658;27;92596;-55
2023/10/30 04:55:58;;;;;;;8.27;3.13;;;;;;;;;;5053957;27;94053;-56
2023/10/30 04:58:26;;;;;;;3.43;2.33;;;;;;;;;;5054840;27;93943;-56
2023/10/30 05:00:55;;;;;;;7.83;3.33;;;;;;;;;;5052457;27;92519;-55
2023/10/30 05:03:24;;;;;;;5.97;2.93;;;;;;;;;;5054501;27;92095;-56
2023/10/30 05:05:53;;;;;;;4.00;2.63;;;;;;;;;;5051152;27;94987;-55
2023/10/30 05:08:21;;;;;;;4.77;2.57;;;;;;;;;;5054133;27;96470;-56
2023/10/30 05:10:49;;;;;;;3.90;2.60;;;;;;;;;;5055016;27;92065;-56
2023/10/30 05:13:18;;;;;;;4.53;3.07;;;;;;;;;;5054610;27;92597;-55
2023/10/30 05:15:46;;;;;;;4.33;3.17;;;;;;;;;;5052591;27;94419;-56
2023/10/30 05:18:17;;;;;;;5.57;3.00;;;;;;;;;;5053712;27;93143;-55
2023/10/30 05:20:47;;;;;;;5.33;2.93;;;;;;;;;;5057014;27;92102;-56
2023/10/30 05:23:15;;;;;;;6.47;3.27;;;;;;;;;;5051911;27;91389;-56
2023/10/30 05:25:43;;;;;;;3.63;2.67;;;;;;;;;;5056530;27;94067;-56
2023/10/30 05:28:12;;;;;;;4.57;2.83;;;;;;;;;;5056254;27;93900;-55
2023/10/30 05:30:40;;;;;;;7.07;3.33;;;;;;;;;;5059162;27;92906;-55
2023/10/30 05:33:09;;;;;;;3.67;2.43;;;;;;;;;;5060512;27;92082;-55
2023/10/30 05:35:37;;;;;;;4.00;2.93;;;;;;;;;;5060424;27;93113;-55
2023/10/30 05:38:08;;;;;;;4.53;3.27;;;;;;;;;;5061692;27;91825;-55
2023/10/30 05:40:37;;;;;;;5.57;3.00;;;;;;;;;;5061759;27;92022;-55
2023/10/30 05:43:06;;;;;;;3.60;2.37;;;;;;;;;;5058932;27;92418;-55
2023/10/30 05:45:34;;;;;;;6.63;2.60;;;;;;;;;;5037186;27;95132;-55
2023/10/30 05:48:03;;;;;;;6.07;3.57;;;;;;;;;;5044649;27;93913;-56
2023/10/30 05:50:31;;;;;;;5.17;2.67;;;;;;;;;;5052914;27;94845;-55
2023/10/30 05:52:59;;;;;;;6.23;2.60;;;;;;;;;;5052491;27;92696;-56
2023/10/30 05:55:29;;;;;;;3.23;2.17;;;;;;;;;;5052845;27;95088;-56
2023/10/30 05:57:57;;;;;;;5.57;2.60;;;;;;;;;;5050877;27;94814;-55
2023/10/30 06:00:26;;;;;;;5.27;2.73;;;;;;;;;;5061070;27;91883;-55
2023/10/30 06:02:55;;;;;;;4.90;2.93;;;;;;;;;;5060775;27;91962;-55
2023/10/30 06:05:23;;;;;;;5.07;2.97;;;;;;;;;;5060231;27;94178;-55
2023/10/30 06:07:51;;;;;;;5.57;2.17;;;;;;;;;;5054466;27;93807;-55
2023/10/30 06:10:23;;;;;;;3.77;2.30;;;;;;;;;;5051333;27;95255;-55
2023/10/30 06:12:53;;;;;;;3.00;2.37;;;;;;;;;;5060083;27;91343;-55
2023/10/30 06:15:21;;;;;;;6.03;2.50;;;;;;;;;;5059419;27;94339;-55
2023/10/30 06:17:49;;;;;;;5.10;3.00;;;;;;;;;;5058576;27;93961;-55
2023/10/30 06:20:18;;;;;;;5.67;2.30;;;;;;;;;;5058850;27;93368;-55
2023/10/30 06:22:46;;;;;;;4.30;2.53;;;;;;;;;;5056670;27;92124;-55
2023/10/30 06:25:15;;;;;;;3.70;2.30;;;;;;;;;;5058078;27;94234;-55
2023/10/30 06:27:43;;;;;;;4.10;2.20;;;;;;;;;;5059057;27;93727;-56
2023/10/30 06:30:14;;;;;;;4.77;3.17;;;;;;;;;;5058362;27;92031;-56
2023/10/30 06:32:42;;;;;;;4.03;2.60;;;;;;;;;;5058431;27;92054;-56
2023/10/30 06:35:11;;;;;;;6.00;2.80;;;;;;;;;;5056145;27;95452;-56
2023/10/30 06:37:39;;;;;;;4.27;2.70;;;;;;;;;;5058953;27;93863;-55
2023/10/30 06:40:08;;;;;;;5.57;2.20;;;;;;;;;;5056672;27;92119;-56
2023/10/30 06:42:37;;;;;;;4.10;2.43;;;;;;;;;;5057241;27;92162;-56
2023/10/30 06:45:06;;;;;;;6.70;2.53;;;;;;;;;;5058067;27;95038;-56
2023/10/30 06:47:35;;;;;;;3.67;2.43;;;;;;;;;;5057680;27;94769;-55
2023/10/30 06:50:04;;;;;;;3.83;2.83;;;;;;;;;;5058157;27;92110;-56
2023/10/30 06:52:32;;;;;;;2.93;2.30;;;;;;;;;;5059065;27;92189;-55
2023/10/30 06:55:01;;;;;;;4.07;2.47;;;;;;;;;;5058405;27;93778;-54
2023/10/30 06:57:29;;;;;;;2.70;2.00;;;;;;;;;;5058636;27;93820;-54
2023/10/30 06:59:58;;;;;;;7.07;2.17;;;;;;;;;;5059859;27;92037;-54
2023/10/30 07:02:26;;;;;;;5.20;2.87;;;;;;;;;;5059437;27;91358;-53
2023/10/30 07:04:56;;;;;;;6.07;2.57;;;;;;;;;;5058337;27;94338;-54
2023/10/30 07:07:24;;;;;;;4.70;2.70;;;;;;;;;;5058256;27;92584;-55
2023/10/30 07:09:53;;;;;;;4.53;3.07;;;;;;;;;;5058529;27;93624;-54
2023/10/30 07:12:21;;;;;;;2.97;2.07;;;;;;;;;;5052255;27;92051;-55
2023/10/30 07:14:50;;;;;;;3.40;2.33;;;;;;;;;;5050589;27;94116;-55
2023/10/30 07:17:18;;;;;;;3.43;2.73;;;;;;;;;;5057822;27;93803;-55
2023/10/30 07:19:48;;;;;;;4.57;2.37;;;;;;;;;;5057198;27;92187;-55
2023/10/30 07:22:18;;;;;;;5.70;2.80;;;;;;;;;;5057593;27;92186;-55
2023/10/30 07:24:46;;;;;;;6.17;3.40;;;;;;;;;;5057930;27;93519;-55
2023/10/30 07:27:15;;;;;;;9.47;3.87;;;;;;;;;;5055755;27;93778;-55
2023/10/30 07:29:46;;;;;;;3.20;2.53;;;;;;;;;;5058794;27;92008;-56
2023/10/30 07:32:14;;;;;;;6.53;3.80;;;;;;;;;;5057820;27;92176;-57
2023/10/30 07:34:43;;;;;;;5.73;3.20;;;;;;;;;;5057088;27;95160;-57
2023/10/30 07:37:11;;;;;;;3.90;2.67;;;;;;;;;;5058808;27;94873;-56
2023/10/30 07:39:41;;;;;;;6.53;3.33;;;;;;;;;;5057556;27;93231;-57
2023/10/30 07:42:09;;;;;;;7.77;3.53;;;;;;;;;;5057417;27;92118;-57
2023/10/30 07:44:38;;;;;;;6.47;3.57;;;;;;;;;;5057920;27;93081;-56
2023/10/30 07:47:06;;;;;;;3.87;2.77;;;;;;;;;;5058324;27;92526;-57
2023/10/30 07:49:35;;;;;;;5.77;3.20;;;;;;;;;;5058956;27;92119;-57
2023/10/30 07:52:03;;;;;;;6.57;3.90;;;;;;;;;;5053385;27;91357;-57
2023/10/30 07:54:32;;;;;;;4.27;3.40;;;;;;;;;;5057598;27;93938;-57
2023/10/30 07:57:02;;;;;;;6.17;3.37;;;;;;;;;;5057547;27;93885;-57
2023/10/30 07:59:32;;;;;;;7.07;3.70;;;;;;;;;;5058124;27;92911;-57
2023/10/30 08:02:00;;;;;;;10.73;4.30;;;;;;;;;;5057062;27;92236;-57
2023/10/30 08:04:29;;;;;;;6.00;4.87;;;;;;;;;;5058140;27;94046;-56
2023/10/30 08:06:57;;;;;;;6.17;3.80;;;;;;;;;;5057007;27;95303;-57
2023/10/30 08:09:26;;;;;;;7.50;3.97;;;;;;;;;;5055684;27;92077;-57
2023/10/30 08:11:55;;;;;;;8.37;3.70;;;;;;;;;;5056351;27;92097;-57
2023/10/30 08:14:25;;;;;;;5.93;3.60;;;;;;;;;;5055179;27;93742;-57
2023/10/30 08:16:53;;;;;;;8.77;4.20;;;;;;;;;;5057844;27;92717;-57
2023/10/30 08:19:22;;;;;;;6.43;3.50;;;;;;;;;;5055581;27;92078;-57
2023/10/30 08:21:50;;;;;;;4.53;3.20;;;;;;;;;;5057858;27;91763;-58
2023/10/30 08:24:19;;;;;;;6.60;3.73;;;;;;;;;;5056568;27;95029;-57
2023/10/30 08:26:47;;;;;;;8.10;4.10;;;;;;;;;;5054312;27;94962;-52
2023/10/30 08:29:15;;;;;;;8.97;4.00;;;;;;;;;;5057592;27;92198;-53
2023/10/30 08:31:45;;;;;;;6.23;3.53;;;;;;;;;;5054429;27;92990;-54
2023/10/30 08:34:14;;;;;;;7.70;4.10;;;;;;;;;;5057765;27;94274;-53
2023/10/30 08:36:43;;;;;;;5.67;3.47;;;;;;;;;;5057040;27;93845;-54
2023/10/30 08:39:12;;;;;;;5.60;2.77;;;;;;;;;;5057128;27;92241;-55
2023/10/30 08:41:41;;;;;;;6.43;3.27;;;;;;;;;;5057880;27;91395;-55
2023/10/30 08:44:09;;;;;;;5.17;3.30;;;;;;;;;;5057628;27;94126;-55
2023/10/30 08:46:38;;;;;;;5.37;3.50;;;;;;;;;;5057767;27;93131;-55
2023/10/30 08:49:07;;;;;;;8.90;3.93;;;;;;;;;;5057359;27;93803;-52
2023/10/30 08:51:40;;;;;;;6.03;3.33;;;;;;;;;;5057497;27;92164;-53
2023/10/30 08:54:24;;;;;;;7.20;2.70;;;;;;;;;;5057541;27;94020;-53
2023/10/30 08:56:53;;;;;;;5.47;3.30;;;;;;;;;;5056815;27;93777;-53
2023/10/30 08:59:31;;;;;;;3.73;3.07;;;;;;;;;;5056877;27;92083;-54
2023/10/30 09:02:00;;;;;;;7.20;2.87;;;;;;;;;;5057735;27;92049;-53
2023/10/30 09:04:30;;;;;;;5.37;3.70;;;;;;;;;;5055511;27;94111;-53
2023/10/30 09:06:59;;;;;;;5.93;4.00;;;;;;;;;;5058533;27;93783;-54
2023/10/30 09:09:27;;;;;;;8.80;3.60;;;;;;;;;;5060738;27;92093;-53
2023/10/30 09:11:56;;;;;;;3.57;2.83;;;;;;;;;;5058132;27;92087;-53
2023/10/30 09:14:24;;;;;;;5.40;2.53;;;;;;;;;;5060274;27;95293;-53
2023/10/30 09:16:54;;;;;;;5.23;3.30;;;;;;;;;;5059701;27;94834;-53
2023/10/30 09:19:22;;;;;;;4.67;2.67;;;;;;;;;;5061382;27;92054;-53
2023/10/30 09:21:53;;;;;;;4.13;3.10;;;;;;;;;;5060642;27;92120;-53
2023/10/30 09:24:24;;;;;;;7.73;2.73;;;;;;;;;;5060944;27;93049;-53
2023/10/30 09:26:52;;;;;;;3.80;2.63;;;;;;;;;;5060512;27;93119;-51
2023/10/30 09:29:20;;;;;;;4.97;2.80;;;;;;;;;;5060708;27;91999;-53
2023/10/30 09:31:49;;;;;;;6.57;3.07;;;;;;;;;;5055706;27;91350;-53
2023/10/30 09:34:18;;;;;;;4.30;2.53;;;;;;;;;;5058037;27;94240;-52
2023/10/30 09:36:46;;;;;;;6.00;3.53;;;;;;;;;;5060012;27;93853;-52
2023/10/30 09:39:16;;;;;;;4.47;2.30;;;;;;;;;;5060239;27;92915;-52
2023/10/30 09:41:45;;;;;;;5.40;2.87;;;;;;;;;;5058509;27;92159;-52
2023/10/30 09:44:13;;;;;;;4.10;2.33;;;;;;;;;;5059716;27;93228;-53
2023/10/30 09:46:42;;;;;;;4.83;2.70;;;;;;;;;;5060113;27;93768;-53
2023/10/30 09:49:13;;;;;;;5.87;2.50;;;;;;;;;;5060789;27;91989;-53
2023/10/30 09:51:42;;;;;;;4.30;2.30;;;;;;;;;;5059872;27;92066;-53
2023/10/30 09:54:11;;;;;;;4.50;2.40;;;;;;;;;;5060168;27;94112;-53
2023/10/30 09:56:41;;;;;;;2.57;1.93;;;;;;;;;;5060155;27;94146;-53
2023/10/30 09:59:10;;;;;;;4.57;3.00;;;;;;;;;;5056219;27;92113;-53
2023/10/30 10:01:38;;;;;;;3.00;2.03;;;;;;;;;;5052266;27;94393;-54
2023/10/30 10:04:07;;;;;;;4.73;2.63;;;;;;;;;;5040710;27;95023;-53
2023/10/30 10:06:35;;;;;;;2.43;2.07;;;;;;;;;;5029220;27;95382;-53
2023/10/30 10:09:04;;;;;;;2.03;1.77;;;;;;;;;;5030920;27;94029;-53
2023/10/30 10:11:33;;;;;;;4.20;2.67;;;;;;;;;;5055931;27;92134;-53
2023/10/30 10:14:04;;;;;;;3.90;2.30;;;;;;;;;;5050497;27;94084;-52
2023/10/30 10:16:36;;;;;;;2.67;2.40;;;;;;;;;;5055663;27;93988;-53
2023/10/30 10:19:16;;;;;;;3.67;2.53;;;;;;;;;;5056945;27;92061;-53
2023/10/30 10:21:48;;;;;;;3.00;2.10;;;;;;;;;;5057370;27;91350;-53
2023/10/30 10:24:28;;;;;;;4.83;2.30;;;;;;;;;;5053897;27;94134;-53
2023/10/30 10:27:02;;;;;;;4.30;2.40;;;;;;;;;;5054889;27;93928;-53
2023/10/30 10:29:32;;;;;;;2.43;1.80;;;;;;;;;;5051292;27;93196;-53
2023/10/30 10:32:00;;;;;;;3.73;2.80;;;;;;;;;;5033073;27;95949;-54
2023/10/30 10:34:31;;;;;;;3.90;2.57;;;;;;;;;;5034277;27;95294;-52
2023/10/30 10:37:01;;;;;;;4.17;2.40;;;;;;;;;;5049518;27;93976;-53
2023/10/30 10:39:36;;;;;;;3.47;2.17;;;;;;;;;;5054231;27;95391;-53
2023/10/30 10:42:04;;;;;;;3.07;2.17;;;;;;;;;;5051995;27;92048;-53
2023/10/30 10:44:34;;;;;;;4.33;2.80;;;;;;;;;;5047395;27;94158;-53
2023/10/30 10:47:03;;;;;;;3.17;2.00;;;;;;;;;;5053426;27;94350;-53
2023/10/30 10:49:35;;;;;;;2.30;2.10;;;;;;;;;;5049119;27;92117;-53
2023/10/30 10:52:04;;;;;;;2.97;2.13;;;;;;;;;;5051124;27;92250;-52
2023/10/30 10:54:34;;;;;;;4.73;2.33;;;;;;;;;;5046179;27;94855;-54
2023/10/30 10:57:03;;;;;;;3.00;2.17;;;;;;;;;;5041587;27;94855;-53
2023/10/30 10:59:31;;;;;;;2.40;1.90;;;;;;;;;;5035725;27;95192;-54
2023/10/30 11:02:02;;;;;;;4.13;2.57;;;;;;;;;;5053804;27;92249;-52
2023/10/30 11:04:31;;;;;;;3.10;2.30;;;;;;;;;;5058564;27;94374;-53
2023/10/30 11:07:01;;;;;;;3.00;1.90;;;;;;;;;;5056659;27;93881;-53
2023/10/30 11:09:30;;;;;;;5.50;2.50;;;;;;;;;;5059004;27;92064;-53
2023/10/30 11:12:01;;;;;;;4.07;1.73;;;;;;;;;;5059632;27;91329;-53
2023/10/30 11:14:30;;;;;;;5.63;2.37;;;;;;;;;;5041174;27;94103;-52
2023/10/30 11:17:02;;;;;;;5.83;1.90;;;;;;;;;;5049555;27;93815;-53
2023/10/30 11:19:32;;;;;;;5.10;2.60;;;;;;;;;;5037859;27;95807;-53
2023/10/30 11:22:00;;;;;;;4.37;2.10;;;;;;;;;;5043519;27;92261;-53
2023/10/30 11:24:35;;;;;;;3.03;2.30;;;;;;;;;;5047803;27;94194;-53
2023/10/30 11:27:03;;;;;;;4.23;2.20;;;;;;;;;;5058306;27;93918;-53
2023/10/30 11:29:47;;;;;;;8.07;2.30;;;;;;;;;;5059293;27;92061;-52
2023/10/30 11:32:17;;;;;;;3.73;2.17;;;;;;;;;;5057854;27;92009;-52
2023/10/30 11:34:46;;;;;;;3.93;2.27;;;;;;;;;;5055895;27;93040;-52
2023/10/30 11:37:15;;;;;;;3.73;2.00;;;;;;;;;;5058930;27;94090;-53
2023/10/30 11:39:45;;;;;;;3.63;2.40;;;;;;;;;;5055906;27;92066;-53
2023/10/30 11:42:39;;;;;;;4.57;2.97;;;;;;;;;;5040634;27;93397;-52
2023/10/30 11:45:24;;;;;;;5.43;2.57;;;;;;;;;;5054467;27;95046;-52
2023/10/30 11:48:05;;;;;;;5.37;2.67;;;;;;;;;;5056561;27;94804;-52
2023/10/30 11:50:34;;;;;;;5.33;3.10;;;;;;;;;;5044869;27;92151;-52
2023/10/30 11:53:07;;;;;;;4.00;2.73;;;;;;;;;;5054178;27;92000;-53
2023/10/30 11:55:37;;;;;;;8.10;3.20;;;;;;;;;;5037660;27;94080;-53
2023/10/30 11:58:05;;;;;;;5.13;3.03;;;;;;;;;;5051637;27;95841;-53
2023/10/30 12:00:35;;;;;;;6.03;3.93;;;;;;;;;;5057008;27;92707;-52
2023/10/30 12:03:05;;;;;;;13.43;4.73;;;;;;;;;;5053498;27;91330;-53
2023/10/30 12:05:33;;;;;;;7.17;4.70;;;;;;;;;;5057519;27;92597;-53
2023/10/30 12:08:03;;;;;;;8.70;4.87;;;;;;;;;;5037587;27;93787;-52
2023/10/30 12:10:32;;;;;;;14.30;5.57;;;;;;;;;;5033459;27;95040;-53
2023/10/30 12:13:03;;;;;;;9.30;5.43;;;;;;;;;;5054465;27;92109;-52
2023/10/30 12:15:32;;;;;;;11.17;5.43;;;;;;;;;;5048305;27;93257;-53
2023/10/30 12:18:01;;;;;;;7.73;5.47;;;;;;;;;;5037088;27;95832;-53
2023/10/30 12:20:31;;;;;;;9.90;6.27;;;;;;;;;;5051961;27;92499;-53
2023/10/30 12:23:00;;;;;;;12.03;6.83;;;;;;;;;;5031423;27;92968;-53
2023/10/30 12:25:28;;;;;;;10.73;6.70;;;;;;;;;;5036626;27;95012;-53
2023/10/30 12:28:03;;;;;;;11.17;6.77;;;;;;;;;;5048605;27;93694;-52
2023/10/30 12:30:35;;;;;;;11.27;6.63;;;;;;;;;;5057769;27;92050;-52
2023/10/30 12:33:04;;;;;;;12.13;7.10;;;;;;;;;;5055738;27;92062;-52
2023/10/30 12:35:35;;;;;;;12.50;8.13;;;;;;;;;;5056504;27;95041;-53
2023/10/30 12:38:13;;;;;;;12.97;7.87;;;;;;;;;;5057021;27;94837;-53
2023/10/30 12:40:44;;;;;;;14.27;8.10;;;;;;;;;;5058054;27;92165;-53
2023/10/30 12:43:13;;;;;;;12.60;7.70;;;;;;;;;;5057939;27;91953;-53
2023/10/30 12:45:41;;;;;;;13.60;7.67;;;;;;;;;;5057041;27;91895;-52
2023/10/30 12:48:10;;;;;;;15.30;8.83;;;;;;;;;;5054659;27;92712;-53
2023/10/30 12:50:40;;;;;;;16.97;8.50;;;;;;;;;;5055583;27;92492;-53
2023/10/30 12:53:09;;;;;;;13.33;8.43;;;;;;;;;;5058028;27;92359;-52
2023/10/30 12:55:40;;;;;;;19.43;8.70;;;;;;;;;;5053759;27;94185;-53
2023/10/30 12:58:08;;;;;;;17.07;9.83;;;;;;;;;;5056644;27;93884;-52
2023/10/30 13:00:37;;;;;;;14.20;9.13;;;;;;;;;;5056991;27;92901;-53
2023/10/30 13:03:05;;;;;;;13.30;9.13;;;;;;;;;;5057359;27;92128;-54
2023/10/30 13:05:34;;;;;;;13.93;8.47;;;;;;;;;;5054657;27;94109;-52
2023/10/30 13:08:04;;;;;;;13.87;9.60;;;;;;;;;;5057373;27;93791;-52
2023/10/30 13:10:32;;;;;;;20.07;11.87;;;;;;;;;;5046834;27;92330;-53
2023/10/30 13:13:01;;;;;;;91.43;38.23;;;;;;;;;;5054280;27;93139;-52
2023/10/30 13:15:30;;;;;;;315.00;112.20;;;;;;;;;;5052588;27;94123;-52
2023/10/30 13:17:58;;;;;;;315.80;129.37;;;;;;;;;;5055291;27;94052;-53
2023/10/30 13:20:27;;;;;;;306.20;124.83;;;;;;;;;;5053246;27;93602;-52
2023/10/30 13:22:57;;;;;;;255.27;110.73;;;;;;;;;;5055088;27;92229;-52
2023/10/30 13:25:27;;;;;;;239.03;99.07;;;;;;;;;;5052076;27;95107;-53
2023/10/30 13:27:55;;;;;;;227.47;93.07;;;;;;;;;;5052767;27;94890;-53
2023/10/30 13:30:24;;;;;;;196.83;84.83;;;;;;;;;;5055120;27;92021;-53
2023/10/30 13:32:55;;;;;;;162.20;76.93;;;;;;;;;;5053732;27;92063;-53
2023/10/30 13:35:24;;;;;;;155.07;67.73;;;;;;;;;;5049842;27;94091;-52
2023/10/30 13:37:52;;;;;;;155.70;66.10;;;;;;;;;;5050272;27;93954;-53
2023/10/30 13:40:21;;;;;;;131.23;60.33;;;;;;;;;;5054993;27;92583;-53
2023/10/30 13:42:51;;;;;;;138.57;56.20;;;;;;;;;;5055899;27;91633;-54
2023/10/30 13:45:19;;;;;;;118.07;52.83;;;;;;;;;;5052625;27;94213;-54
2023/10/30 13:47:47;;;;;;;122.13;52.87;;;;;;;;;;5052615;27;94061;-53
2023/10/30 13:50:16;;;;;;;115.93;49.27;;;;;;;;;;5053178;27;93370;-53
2023/10/30 13:52:44;;;;;;;102.20;42.73;;;;;;;;;;5057302;27;94024;-53
2023/10/30 13:55:13;;;;;;;92.20;38.50;;;;;;;;;;5057871;27;94175;-53
2023/10/30 13:57:41;;;;;;;67.57;33.43;;;;;;;;;;5059102;27;93914;-53
2023/10/30 14:00:12;;;;;;;48.40;27.20;;;;;;;;;;5056249;27;92073;-54
2023/10/30 14:02:41;;;;;;;29.77;16.17;;;;;;;;;;5057993;27;92207;-53
2023/10/30 14:05:10;;;;;;;27.73;13.80;;;;;;;;;;5058288;27;94100;-53
2023/10/30 14:07:38;;;;;;;30.63;13.33;;;;;;;;;;5059331;27;93849;-55
2023/10/30 14:10:07;;;;;;;35.23;17.23;;;;;;;;;;5057544;27;92025;-53
2023/10/30 14:12:36;;;;;;;47.13;23.73;;;;;;;;;;5055042;27;92372;-53
2023/10/30 14:15:04;;;;;;;41.93;18.43;;;;;;;;;;5052244;27;95013;-54
2023/10/30 14:17:34;;;;;;;45.03;20.60;;;;;;;;;;5056056;27;94916;-55
2023/10/30 14:20:03;;;;;;;36.63;17.93;;;;;;;;;;5055105;27;92066;-55
2023/10/30 14:22:32;;;;;;;36.93;20.20;;;;;;;;;;5059049;27;92146;-54
2023/10/30 14:25:01;;;;;;;37.87;19.10;;;;;;;;;;5058575;27;94235;-55
2023/10/30 14:27:29;;;;;;;43.27;19.33;;;;;;;;;;5057402;27;93847;-55
2023/10/30 14:29:58;;;;;;;40.27;21.07;;;;;;;;;;5059002;27;92567;-56
2023/10/30 14:32:26;;;;;;;34.33;19.50;;;;;;;;;;5055031;27;91362;-55
2023/10/30 14:34:56;;;;;;;40.43;18.77;;;;;;;;;;5050692;27;94132;-55
2023/10/30 14:37:24;;;;;;;38.10;18.67;;;;;;;;;;5053970;27;94215;-55
2023/10/30 14:39:53;;;;;;;47.00;20.60;;;;;;;;;;5054899;27;92949;-55
2023/10/30 14:42:21;;;;;;;37.40;18.67;;;;;;;;;;5057623;27;93300;-55
2023/10/30 14:44:51;;;;;;;36.43;18.50;;;;;;;;;;5056940;27;94154;-56
2023/10/30 14:47:20;;;;;;;36.40;19.57;;;;;;;;;;5057788;27;94011;-55
2023/10/30 14:49:48;;;;;;;36.07;17.27;;;;;;;;;;5058148;27;92026;-55